Time;durP1;ratioP1;P1;durP2;ratioP2;P2;SDS_P1;SDS_P2;PMS_P1;PMS_P2;Temp;Humidity;BMP_temperature;BMP_pressure;BME280_temperature;BME280_humidity;BME280_pressure;Samples;Min_cycle;Max_cycle;Signal;HPM_P1;HPM_P2
2023/03/26 00:01:48;;;;;;;;;;;;;;;;;;5095487;28;19954;-68
2023/03/26 00:04:20;;;;;;;;;;;;;;;;;;5096615;28;19916;-68
2023/03/26 00:06:47;;;;;;;;;;;;;;;;;;5096656;28;19909;-68
2023/03/26 00:09:14;;;;;;;;;;;;;;;;;;5096684;28;19915;-68
2023/03/26 00:11:40;;;;;;;;;;;;;;;;;;5096139;28;19908;-68
2023/03/26 00:14:06;;;;;;;;;;;;;;;;;;5095270;28;19915;-68
2023/03/26 00:16:32;;;;;;;;;;;;;;;;;;5096479;28;19908;-68
2023/03/26 00:18:58;;;;;;;;;;;;;;;;;;5096069;28;19943;-68
2023/03/26 00:21:27;;;;;;;;;;;;;;;;;;5095096;28;19908;-66
2023/03/26 00:23:54;;;;;;;;;;;;;;;;;;5096134;28;19916;-66
2023/03/26 00:26:20;;;;;;;;;;;;;;;;;;5094598;28;20008;-66
2023/03/26 00:28:49;;;;;;;;;;;;;;;;;;5096280;28;19916;-67
2023/03/26 00:31:15;;;;;;;;;;;;;;;;;;5096102;28;19915;-67
2023/03/26 00:33:41;;;;;;;;;;;;;;;;;;5095727;28;19908;-67
2023/03/26 00:36:08;;;;;;;;;;;;;;;;;;5096259;28;20352;-67
2023/03/26 00:38:37;;;;;;;;;;;;;;;;;;5094768;28;19908;-67
2023/03/26 00:41:04;;;;;;;;;;;;;;;;;;5095463;28;19916;-67
2023/03/26 00:43:31;;;;;;;;;;;;;;;;;;5095639;28;19955;-66
2023/03/26 00:45:57;;;;;;;;;;;;;;;;;;5095923;28;19908;-67
2023/03/26 00:48:23;;;;;;;;;;;;;;;;;;5095488;28;19908;-67
2023/03/26 00:50:49;;;;;;;;;;;;;;;;;;5095811;28;19940;-66
2023/03/26 00:53:15;;;;;;;;;;;;;;;;;;5095778;28;19912;-67
2023/03/26 00:55:41;;;;;;;;;;;;;;;;;;5095334;28;19908;-66
2023/03/26 00:58:10;;;;;;;;;;;;;;;;;;5094368;28;19930;-66
2023/03/26 01:00:36;;;;;;;;;;;;;;;;;;5095615;28;19951;-66
2023/03/26 01:03:03;;;;;;;;;;;;;;;;;;5094316;28;19963;-66
2023/03/26 01:05:29;;;;;;;;;;;;;;;;;;5095507;28;20271;-66
2023/03/26 01:07:55;;;;;;;;;;;;;;;;;;5093635;28;19912;-66
2023/03/26 01:10:21;;;;;;;;;;;;;;;;;;5095971;28;19915;-66
2023/03/26 01:12:47;;;;;;;;;;;;;;;;;;5095426;28;19999;-66
2023/03/26 01:15:13;;;;;;;;;;;;;;;;;;5095042;28;19944;-66
2023/03/26 01:17:41;;;;;;;;;;;;;;;;;;5093990;28;19908;-66
2023/03/26 01:20:12;;;;;;;;;;;;;;;;;;5094231;28;19908;-67
2023/03/26 01:22:38;;;;;;;;;;;;;;;;;;5094692;28;19919;-67
2023/03/26 01:25:04;;;;;;;;;;;;;;;;;;5093813;28;19912;-66
2023/03/26 01:27:31;;;;;;;;;;;;;;;;;;5095034;28;19908;-67
2023/03/26 01:29:57;;;;;;;;;;;;;;;;;;5093471;28;20375;-67
2023/03/26 01:32:23;;;;;;;;;;;;;;;;;;5095248;28;19908;-67
2023/03/26 01:34:51;;;;;;;;;;;;;;;;;;5095006;28;19954;-67
2023/03/26 01:37:17;;;;;;;;;;;;;;;;;;5094516;28;19912;-67
2023/03/26 01:39:48;;;;;;;;;;;;;;;;;;5094878;28;19908;-67
2023/03/26 01:42:14;;;;;;;;;;;;;;;;;;5094902;28;19908;-67
2023/03/26 01:44:41;;;;;;;;;;;;;;;;;;5094511;28;19908;-67
2023/03/26 01:47:07;;;;;;;;;;;;;;;;;;5094798;28;19981;-67
2023/03/26 01:49:33;;;;;;;;;;;;;;;;;;5094779;28;19912;-67
2023/03/26 01:51:59;;;;;;;;;;;;;;;;;;5092410;28;20398;-67
2023/03/26 01:54:25;;;;;;;;;;;;;;;;;;5094628;28;19965;-68
2023/03/26 01:56:51;;;;;;;;;;;;;;;;;;5094609;28;19908;-67
2023/03/26 01:59:17;;;;;;;;;;;;;;;;;;5094166;28;19908;-67
2023/03/26 02:01:44;;;;;;;;;;;;;;;;;;5094501;28;19961;-67
2023/03/26 02:04:10;;;;;;;;;;;;;;;;;;5094052;28;19923;-67
2023/03/26 02:06:36;;;;;;;;;;;;;;;;;;5094357;28;19908;-67
2023/03/26 02:09:02;;;;;;;;;;;;;;;;;;5094359;28;19951;-67
2023/03/26 02:11:28;;;;;;;;;;;;;;;;;;5092698;28;20327;-67
2023/03/26 02:13:54;;;;;;;;;;;;;;;;;;5094370;28;19954;-67
2023/03/26 02:16:20;;;;;;;;;;;;;;;;;;5094264;28;19908;-67
2023/03/26 02:18:50;;;;;;;;;;;;;;;;;;5094210;28;19908;-67
2023/03/26 02:21:19;;;;;;;;;;;;;;;;;;5094160;28;19954;-67
2023/03/26 02:23:45;;;;;;;;;;;;;;;;;;5094164;28;20396;-67
2023/03/26 02:26:11;;;;;;;;;;;;;;;;;;5093667;28;19934;-67
2023/03/26 02:28:37;;;;;;;;;;;;;;;;;;5094168;28;20306;-67
2023/03/26 02:31:03;;;;;;;;;;;;;;;;;;5094148;28;20312;-67
2023/03/26 02:33:29;;;;;;;;;;;;;;;;;;5093860;28;20284;-69
2023/03/26 02:35:58;;;;;;;;;;;;;;;;;;5092733;28;20284;-67
2023/03/26 02:38:25;;;;;;;;;;;;;;;;;;5094018;28;20045;-67
2023/03/26 02:40:51;;;;;;;;;;;;;;;;;;5093565;28;20404;-67
2023/03/26 02:43:17;;;;;;;;;;;;;;;;;;5092263;28;19945;-67
2023/03/26 02:45:43;;;;;;;;;;;;;;;;;;5093964;28;19976;-67
2023/03/26 02:48:09;;;;;;;;;;;;;;;;;;5092209;28;19908;-67
2023/03/26 02:50:35;;;;;;;;;;;;;;;;;;5093911;28;19912;-67
2023/03/26 02:53:01;;;;;;;;;;;;;;;;;;5093849;28;20301;-67
2023/03/26 02:55:27;;;;;;;;;;;;;;;;;;5093480;28;20009;-67
2023/03/26 02:57:53;;;;;;;;;;;;;;;;;;5093800;28;20372;-68
2023/03/26 03:00:21;;;;;;;;;;;;;;;;;;5093388;28;19934;-67
2023/03/26 03:02:47;;;;;;;;;;;;;;;;;;5092427;28;19913;-67
2023/03/26 03:05:13;;;;;;;;;;;;;;;;;;5096106;28;19954;-67
2023/03/26 03:07:39;;;;;;;;;;;;;;;;;;5097449;28;20343;-67
2023/03/26 03:10:07;;;;;;;;;;;;;;;;;;5097838;28;19912;-67
2023/03/26 03:12:33;;;;;;;;;;;;;;;;;;5097826;28;20348;-67
2023/03/26 03:14:59;;;;;;;;;;;;;;;;;;5097713;28;19947;-67
2023/03/26 03:17:25;;;;;;;;;;;;;;;;;;5097792;28;19919;-67
2023/03/26 03:19:51;;;;;;;;;;;;;;;;;;5097995;28;20352;-67
2023/03/26 03:22:18;;;;;;;;;;;;;;;;;;5097126;28;19993;-67
2023/03/26 03:24:44;;;;;;;;;;;;;;;;;;5097637;28;19923;-67
2023/03/26 03:27:11;;;;;;;;;;;;;;;;;;5097451;28;19908;-67
2023/03/26 03:29:37;;;;;;;;;;;;;;;;;;5095778;28;20292;-67
2023/03/26 03:32:03;;;;;;;;;;;;;;;;;;5097894;28;19908;-67
2023/03/26 03:34:29;;;;;;;;;;;;;;;;;;5097322;28;19964;-67
2023/03/26 03:36:55;;;;;;;;;;;;;;;;;;5095684;28;19957;-67
2023/03/26 03:39:21;;;;;;;;;;;;;;;;;;5097640;28;20352;-67
2023/03/26 03:41:48;;;;;;;;;;;;;;;;;;5097121;28;19908;-67
2023/03/26 03:44:14;;;;;;;;;;;;;;;;;;5096581;28;19927;-67
2023/03/26 03:46:40;;;;;;;;;;;;;;;;;;5097601;28;19991;-67
2023/03/26 03:49:06;;;;;;;;;;;;;;;;;;5097131;28;19955;-67
2023/03/26 03:51:32;;;;;;;;;;;;;;;;;;5096660;28;19908;-67
2023/03/26 03:53:58;;;;;;;;;;;;;;;;;;5097025;28;19908;-67
2023/03/26 03:56:24;;;;;;;;;;;;;;;;;;5096850;28;19908;-67
2023/03/26 03:58:50;;;;;;;;;;;;;;;;;;5096492;28;19912;-67
2023/03/26 04:01:17;;;;;;;;;;;;;;;;;;5096919;28;20379;-67
2023/03/26 04:03:44;;;;;;;;;;;;;;;;;;5096299;28;20014;-67
2023/03/26 04:06:10;;;;;;;;;;;;;;;;;;5097279;28;19908;-67
2023/03/26 04:08:36;;;;;;;;;;;;;;;;;;5096690;28;20275;-67
2023/03/26 04:11:02;;;;;;;;;;;;;;;;;;5096249;28;20217;-67
2023/03/26 04:13:28;;;;;;;;;;;;;;;;;;5096554;28;19912;-67
2023/03/26 04:15:54;;;;;;;;;;;;;;;;;;5094736;28;20353;-67
2023/03/26 04:18:21;;;;;;;;;;;;;;;;;;5096080;28;19908;-67
2023/03/26 04:20:48;;;;;;;;;;;;;;;;;;5096417;28;19950;-67
2023/03/26 04:23:14;;;;;;;;;;;;;;;;;;5096600;28;19916;-67
2023/03/26 04:25:40;;;;;;;;;;;;;;;;;;5095989;28;19931;-67
2023/03/26 04:28:06;;;;;;;;;;;;;;;;;;5096215;28;20003;-67
2023/03/26 04:30:32;;;;;;;;;;;;;;;;;;5096269;28;20327;-68
2023/03/26 04:32:59;;;;;;;;;;;;;;;;;;5094511;28;20276;-66
2023/03/26 04:35:25;;;;;;;;;;;;;;;;;;5096300;28;19916;-67
2023/03/26 04:37:51;;;;;;;;;;;;;;;;;;5096158;28;19916;-67
2023/03/26 04:40:18;;;;;;;;;;;;;;;;;;5095672;28;19908;-67
2023/03/26 04:42:47;;;;;;;;;;;;;;;;;;5095744;28;19924;-68
2023/03/26 04:45:13;;;;;;;;;;;;;;;;;;5096001;28;19908;-67
2023/03/26 04:47:39;;;;;;;;;;;;;;;;;;5095547;28;19982;-67
2023/03/26 04:50:05;;;;;;;;;;;;;;;;;;5095888;28;19912;-67
2023/03/26 04:52:31;;;;;;;;;;;;;;;;;;5095877;28;19912;-67
2023/03/26 04:54:57;;;;;;;;;;;;;;;;;;5095390;28;19908;-67
2023/03/26 04:57:23;;;;;;;;;;;;;;;;;;5095751;28;20011;-68
2023/03/26 04:59:49;;;;;;;;;;;;;;;;;;5095327;28;19908;-67
2023/03/26 05:02:16;;;;;;;;;;;;;;;;;;5095875;28;20053;-67
2023/03/26 05:04:44;;;;;;;;;;;;;;;;;;5095607;28;19916;-67
2023/03/26 05:07:10;;;;;;;;;;;;;;;;;;5094191;28;20284;-66
2023/03/26 05:09:36;;;;;;;;;;;;;;;;;;5095569;28;19908;-68
2023/03/26 05:12:02;;;;;;;;;;;;;;;;;;5095412;28;20307;-68
2023/03/26 05:14:28;;;;;;;;;;;;;;;;;;5095048;28;20291;-67
2023/03/26 05:16:54;;;;;;;;;;;;;;;;;;5095445;28;19908;-68
2023/03/26 05:19:21;;;;;;;;;;;;;;;;;;5093994;28;19908;-66
2023/03/26 05:21:47;;;;;;;;;;;;;;;;;;5095209;28;19908;-68
2023/03/26 05:24:13;;;;;;;;;;;;;;;;;;5095130;28;19920;-67
2023/03/26 05:26:39;;;;;;;;;;;;;;;;;;5094584;28;19908;-68
2023/03/26 05:29:05;;;;;;;;;;;;;;;;;;5094738;28;19954;-68
2023/03/26 05:31:31;;;;;;;;;;;;;;;;;;5095086;28;19908;-68
2023/03/26 05:33:56;;;;;;;;;;;;;;;;;;5095252;28;19908;-67
2023/03/26 05:36:22;;;;;;;;;;;;;;;;;;5094532;28;19915;-69
2023/03/26 05:38:48;;;;;;;;;;;;;;;;;;5094939;28;19965;-68
2023/03/26 05:41:14;;;;;;;;;;;;;;;;;;5093553;28;19935;-68
2023/03/26 05:43:40;;;;;;;;;;;;;;;;;;5094269;28;20357;-67
2023/03/26 05:46:06;;;;;;;;;;;;;;;;;;5094841;28;19908;-68
2023/03/26 05:48:32;;;;;;;;;;;;;;;;;;5094784;28;19909;-67
2023/03/26 05:50:58;;;;;;;;;;;;;;;;;;5094334;28;19934;-67
2023/03/26 05:53:24;;;;;;;;;;;;;;;;;;5094693;28;19912;-67
2023/03/26 05:55:56;;;;;;;;;;;;;;;;;;5093284;28;19913;-67
2023/03/26 05:58:22;;;;;;;;;;;;;;;;;;5092887;28;19908;-67
2023/03/26 06:00:48;;;;;;;;;;;;;;;;;;5094434;28;19915;-67
2023/03/26 06:03:15;;;;;;;;;;;;;;;;;;5092766;28;19916;-67
2023/03/26 06:05:41;;;;;;;;;;;;;;;;;;5094468;28;19995;-67
2023/03/26 06:08:07;;;;;;;;;;;;;;;;;;5094316;28;19908;-67
2023/03/26 06:10:33;;;;;;;;;;;;;;;;;;5094007;28;19909;-67
2023/03/26 06:12:59;;;;;;;;;;;;;;;;;;5094305;28;19915;-67
2023/03/26 06:15:25;;;;;;;;;;;;;;;;;;5094623;28;19909;-67
2023/03/26 06:17:51;;;;;;;;;;;;;;;;;;5092560;28;19940;-67
2023/03/26 06:20:17;;;;;;;;;;;;;;;;;;5094231;28;19908;-67
2023/03/26 06:22:43;;;;;;;;;;;;;;;;;;5094464;28;19919;-67
2023/03/26 06:25:09;;;;;;;;;;;;;;;;;;5093701;28;20010;-67
2023/03/26 06:27:35;;;;;;;;;;;;;;;;;;5094158;28;19934;-67
2023/03/26 06:30:01;;;;;;;;;;;;;;;;;;5094303;28;19995;-67
2023/03/26 06:32:27;;;;;;;;;;;;;;;;;;5092410;28;20395;-67
2023/03/26 06:34:53;;;;;;;;;;;;;;;;;;5094618;28;20394;-67
2023/03/26 06:37:19;;;;;;;;;;;;;;;;;;5094009;28;20424;-67
2023/03/26 06:39:45;;;;;;;;;;;;;;;;;;5092093;28;19947;-67
2023/03/26 06:42:11;;;;;;;;;;;;;;;;;;5093738;28;19958;-67
2023/03/26 06:44:37;;;;;;;;;;;;;;;;;;5093891;28;20119;-67
2023/03/26 06:47:03;;;;;;;;;;;;;;;;;;5093564;28;19912;-67
2023/03/26 06:49:29;;;;;;;;;;;;;;;;;;5092619;28;20352;-67
2023/03/26 06:51:56;;;;;;;;;;;;;;;;;;5094392;28;20003;-67
2023/03/26 06:54:22;;;;;;;;;;;;;;;;;;5093370;28;19908;-67
2023/03/26 06:56:48;;;;;;;;;;;;;;;;;;5093857;28;20264;-67
2023/03/26 06:59:14;;;;;;;;;;;;;;;;;;5093772;28;19952;-67
2023/03/26 07:01:40;;;;;;;;;;;;;;;;;;5093389;28;19916;-67
2023/03/26 07:04:06;;;;;;;;;;;;;;;;;;5094184;28;20349;-67
2023/03/26 07:06:32;;;;;;;;;;;;;;;;;;5092028;28;20332;-67
2023/03/26 07:08:57;;;;;;;;;;;;;;;;;;5093770;28;19908;-67
2023/03/26 07:11:25;;;;;;;;;;;;;;;;;;5093669;28;19908;-67
2023/03/26 07:13:51;;;;;;;;;;;;;;;;;;5093166;28;20004;-67
2023/03/26 07:16:17;;;;;;;;;;;;;;;;;;5093682;28;19991;-67
2023/03/26 07:18:43;;;;;;;;;;;;;;;;;;5092260;28;19937;-67
2023/03/26 07:21:09;;;;;;;;;;;;;;;;;;5093258;28;19908;-67
2023/03/26 07:23:35;;;;;;;;;;;;;;;;;;5093543;28;19916;-67
2023/03/26 07:26:01;;;;;;;;;;;;;;;;;;5093535;28;20380;-66
2023/03/26 07:28:27;;;;;;;;;;;;;;;;;;5093670;28;19915;-66
2023/03/26 07:30:53;;;;;;;;;;;;;;;;;;5092226;28;19908;-66
2023/03/26 07:33:19;;;;;;;;;;;;;;;;;;5092268;28;19908;-68
2023/03/26 07:35:45;;;;;;;;;;;;;;;;;;5093144;28;19980;-66
2023/03/26 07:38:11;;;;;;;;;;;;;;;;;;5093981;28;20435;-66
2023/03/26 07:40:37;;;;;;;;;;;;;;;;;;5093413;28;20283;-67
2023/03/26 07:43:03;;;;;;;;;;;;;;;;;;5091459;28;20280;-67
2023/03/26 07:45:31;;;;;;;;;;;;;;;;;;5093746;28;19908;-67
2023/03/26 07:48:41;;;;;;;;;;;;;;;;;;5112023;27;19922;-67
2023/03/26 07:51:07;;;;;;;;;;;;;;;;;;5110472;28;19912;-67
2023/03/26 07:53:33;;;;;;;;;;;;;;;;;;5112167;28;19908;-67
2023/03/26 07:55:59;;;;;;;;;;;;;;;;;;5111227;28;19958;-66
2023/03/26 07:58:25;;;;;;;;;;;;;;;;;;5111665;28;19908;-66
2023/03/26 08:04:33;;;;;;;;;;;;;;;;;;5070885;28;19920;-67
2023/03/26 08:07:33;;;;;;;;;;;;;;;;;;5112497;27;20276;-66
2023/03/26 08:09:59;;;;;;;;;;;;;;;;;;5111238;28;20039;-68
2023/03/26 08:12:25;;;;;;;;;;;;;;;;;;5111640;28;19908;-67
2023/03/26 08:14:51;;;;;;;;;;;;;;;;;;5111881;28;19961;-67
2023/03/26 08:17:17;;;;;;;;;;;;;;;;;;5111190;28;19912;-68
2023/03/26 08:23:01;;;;;;;;;;;;;;;;;;5153254;27;20092;-66
2023/03/26 08:27:30;;;;;;;;;;;;;;;;;;5112253;27;20283;-66
2023/03/26 08:29:56;;;;;;;;;;;;;;;;;;5111634;28;19912;-66
2023/03/26 08:35:17;;;;;;;;;;;;;;;;;;5112516;27;19916;-66
2023/03/26 08:39:46;;;;;;;;;;;;;;;;;;5111489;27;19916;-66
2023/03/26 08:48:02;;;;;;;;;;;;;;;;;;5112071;27;19912;-66
2023/03/26 08:50:28;;;;;;;;;;;;;;;;;;5111997;28;19947;-68
2023/03/26 08:54:17;;;;;;;;;;;;;;;;;;5091794;28;20372;-67
2023/03/26 08:57:08;;;;;;;;;;;;;;;;;;5112032;27;20298;-66
2023/03/26 08:59:34;;;;;;;;;;;;;;;;;;5111303;28;20006;-67
2023/03/26 09:02:31;;;;;;;;;;;;;;;;;;5112334;27;19923;-66
2023/03/26 09:06:03;;;;;;;;;;;;;;;;;;5111836;27;20291;-67
2023/03/26 09:08:29;;;;;;;;;;;;;;;;;;5111692;28;19912;-67
2023/03/26 09:14:19;;;;;;;;;;;;;;;;;;5111671;27;19916;-66
2023/03/26 09:16:45;;;;;;;;;;;;;;;;;;5112222;28;19998;-66
2023/03/26 09:19:11;;;;;;;;;;;;;;;;;;5112241;28;19947;-66
2023/03/26 09:22:42;;;;;;;;;;;;;;;;;;5112531;27;20283;-67
2023/03/26 09:25:09;;;;;;;;;;;;;;;;;;5111778;28;20006;-68
2023/03/26 09:27:35;;;;;;;;;;;;;;;;;;5111270;28;19908;-66
2023/03/26 09:30:01;;;;;;;;;;;;;;;;;;5111628;28;20018;-67
2023/03/26 09:32:27;;;;;;;;;;;;;;;;;;5111553;28;19908;-66
2023/03/26 09:39:06;;;;;;;;;;;;;;;;;;5091555;27;19923;-66
2023/03/26 09:41:32;;;;;;;;;;;;;;;;;;5091039;28;19966;-66
2023/03/26 09:43:58;;;;;;;;;;;;;;;;;;5090027;28;19962;-66
2023/03/26 09:48:28;;;;;;;;;;;;;;;;;;5091137;27;19921;-66
2023/03/26 09:50:54;;;;;;;;;;;;;;;;;;5090045;28;19999;-67
2023/03/26 09:54:55;;;;;;;;;;;;;;;;;;4969894;28;19941;-66
2023/03/26 09:57:21;;;;;;;;;;;;;;;;;;4968745;28;20357;-67
2023/03/26 09:59:47;;;;;;;;;;;;;;;;;;4967821;28;19937;-66
2023/03/26 10:05:33;;;;;;;;;;;;;;;;;;5112183;27;19922;-67
2023/03/26 10:11:57;;;;;;;;;;;;;;;;;;5112335;27;19923;-67
2023/03/26 10:14:23;;;;;;;;;;;;;;;;;;5111731;28;20006;-67
2023/03/26 10:16:49;;;;;;;;;;;;;;;;;;5110000;28;19908;-67
2023/03/26 10:19:15;;;;;;;;;;;;;;;;;;5111603;28;19914;-67
2023/03/26 10:21:41;;;;;;;;;;;;;;;;;;5111584;28;19942;-67
2023/03/26 10:28:36;;;;;;;;;;;;;;;;;;5112485;27;19916;-67
2023/03/26 10:31:04;;;;;;;;;;;;;;;;;;5111244;28;20018;-67
2023/03/26 10:33:30;;;;;;;;;;;;;;;;;;5110375;28;19915;-66
2023/03/26 10:38:17;;;;;;;;;;;;;;;;;;5111725;27;19916;-67
2023/03/26 10:40:43;;;;;;;;;;;;;;;;;;5111648;28;19912;-67
2023/03/26 10:43:09;;;;;;;;;;;;;;;;;;5110369;28;19961;-67
2023/03/26 10:46:40;;;;;;;;;;;;;;;;;;5111840;27;19923;-67
2023/03/26 10:49:06;;;;;;;;;;;;;;;;;;5111725;28;20003;-67
2023/03/26 10:51:32;;;;;;;;;;;;;;;;;;5111235;28;19954;-67
2023/03/26 10:56:12;;;;;;;;;;;;;;;;;;5092151;27;19916;-67
2023/03/26 10:58:39;;;;;;;;;;;;;;;;;;5089614;28;20324;-67
2023/03/26 11:01:05;;;;;;;;;;;;;;;;;;5091611;28;20349;-68
2023/03/26 11:03:31;;;;;;;;;;;;;;;;;;5091251;28;19948;-67
2023/03/26 11:05:57;;;;;;;;;;;;;;;;;;5090803;28;19909;-67
2023/03/26 11:08:23;;;;;;;;;;;;;;;;;;5091206;28;19909;-67
2023/03/26 11:11:17;;;;;;;;;;;;;;;;;;5111985;27;20376;-67
2023/03/26 11:13:43;;;;;;;;;;;;;;;;;;5111471;28;20007;-67
2023/03/26 11:17:57;;;;;;;;;;;;;;;;;;5112343;27;19916;-67
2023/03/26 11:20:47;;;;;;;;;;;;;;;;;;5111674;27;19923;-67
2023/03/26 11:23:13;;;;;;;;;;;;;;;;;;5111683;28;19994;-68
2023/03/26 11:25:39;;;;;;;;;;;;;;;;;;5111644;28;20367;-68
2023/03/26 11:28:06;;;;;;;;;;;;;;;;;;5111240;28;20360;-68
2023/03/26 11:30:31;;;;;;;;;;;;;;;;;;5110203;28;19908;-68
2023/03/26 11:32:57;;;;;;;;;;;;;;;;;;5111530;28;20321;-68
2023/03/26 11:35:23;;;;;;;;;;;;;;;;;;5111109;28;19908;-68
2023/03/26 11:38:43;;;;;;;;;;;;;;;;;;5112445;27;20383;-66
2023/03/26 11:41:09;;;;;;;;;;;;;;;;;;5111298;28;20011;-67
2023/03/26 11:43:35;;;;;;;;;;;;;;;;;;5111885;28;19953;-66
2023/03/26 11:46:43;;;;;;;;;;;;;;;;;;5091710;27;20285;-67
2023/03/26 11:49:10;;;;;;;;;;;;;;;;;;5089566;28;20381;-67
2023/03/26 11:51:36;;;;;;;;;;;;;;;;;;5091442;28;19995;-67
2023/03/26 11:54:02;;;;;;;;;;;;;;;;;;5091295;28;19954;-66
2023/03/26 11:56:28;;;;;;;;;;;;;;;;;;5090759;28;19909;-67
2023/03/26 11:59:43;;;;;;;;;;;;;;;;;;5092077;27;19917;-66
2023/03/26 12:02:40;;;;;;;;;;;;;;;;;;5152881;27;19916;-66
2023/03/26 12:05:06;;;;;;;;;;;;;;;;;;5152874;27;19911;-67
2023/03/26 12:07:32;;;;;;;;;;;;;;;;;;5153175;27;19907;-67
2023/03/26 12:09:57;;;;;;;;;;;;;;;;;;5152476;27;19914;-67
2023/03/26 12:12:24;;;;;;;;;;;;;;;;;;5153012;27;19947;-67
2023/03/26 12:14:50;;;;;;;;;;;;;;;;;;5153055;27;20400;-67
2023/03/26 12:17:15;;;;;;;;;;;;;;;;;;5152216;27;19912;-66
2023/03/26 12:19:41;;;;;;;;;;;;;;;;;;5152909;27;19908;-67
2023/03/26 12:22:07;;;;;;;;;;;;;;;;;;5133949;27;20276;-68
2023/03/26 12:24:33;;;;;;;;;;;;;;;;;;5152136;27;20387;-67
2023/03/26 12:27:02;;;;;;;;;;;;;;;;;;5133886;27;19911;-67
2023/03/26 12:29:33;;;;;;;;;;;;;;;;;;5152607;27;19907;-67
2023/03/26 12:31:58;;;;;;;;;;;;;;;;;;5133399;27;20017;-67
2023/03/26 12:34:24;;;;;;;;;;;;;;;;;;5152388;27;19951;-67
2023/03/26 12:36:50;;;;;;;;;;;;;;;;;;5152267;27;19968;-67
2023/03/26 12:39:16;;;;;;;;;;;;;;;;;;5133531;27;19913;-68
2023/03/26 12:41:42;;;;;;;;;;;;;;;;;;5152091;27;20006;-67
2023/03/26 12:44:08;;;;;;;;;;;;;;;;;;5151716;27;19952;-68
2023/03/26 12:46:35;;;;;;;;;;;;;;;;;;5152159;27;19908;-68
2023/03/26 12:49:00;;;;;;;;;;;;;;;;;;5152105;27;19908;-68
2023/03/26 12:51:26;;;;;;;;;;;;;;;;;;5133067;27;19918;-67
2023/03/26 12:53:52;;;;;;;;;;;;;;;;;;5151956;27;19907;-67
2023/03/26 12:56:20;;;;;;;;;;;;;;;;;;5133354;27;20026;-67
2023/03/26 12:58:49;;;;;;;;;;;;;;;;;;5151644;27;19907;-67
2023/03/26 13:01:16;;;;;;;;;;;;;;;;;;5151764;27;19921;-68
2023/03/26 13:03:42;;;;;;;;;;;;;;;;;;5151726;27;19983;-69
2023/03/26 13:06:08;;;;;;;;;;;;;;;;;;5151393;27;20316;-67
2023/03/26 13:08:34;;;;;;;;;;;;;;;;;;5151735;27;20279;-68
2023/03/26 13:11:00;;;;;;;;;;;;;;;;;;5151632;27;19907;-68
2023/03/26 13:13:26;;;;;;;;;;;;;;;;;;5140519;27;19911;-67
2023/03/26 13:15:52;;;;;;;;;;;;;;;;;;5137745;27;19976;-67
2023/03/26 13:18:18;;;;;;;;;;;;;;;;;;5137706;27;19907;-68
2023/03/26 13:20:44;;;;;;;;;;;;;;;;;;5137368;27;20298;-68
2023/03/26 13:23:10;;;;;;;;;;;;;;;;;;5137934;27;19924;-68
2023/03/26 13:25:35;;;;;;;;;;;;;;;;;;5137613;27;19908;-68
2023/03/26 13:28:01;;;;;;;;;;;;;;;;;;5137017;27;19907;-68
2023/03/26 13:30:27;;;;;;;;;;;;;;;;;;5137637;27;20055;-66
2023/03/26 13:32:57;;;;;;;;;;;;;;;;;;5137166;27;19907;-67
2023/03/26 13:35:23;;;;;;;;;;;;;;;;;;5136842;27;20283;-68
2023/03/26 13:37:49;;;;;;;;;;;;;;;;;;5137387;27;19911;-68
2023/03/26 13:40:15;;;;;;;;;;;;;;;;;;5137220;27;19913;-68
2023/03/26 13:42:41;;;;;;;;;;;;;;;;;;5137243;27;19998;-68
2023/03/26 13:45:07;;;;;;;;;;;;;;;;;;5118722;27;19918;-68
2023/03/26 13:47:33;;;;;;;;;;;;;;;;;;5136955;27;19908;-68
2023/03/26 13:49:59;;;;;;;;;;;;;;;;;;5118640;27;19923;-68
2023/03/26 13:52:24;;;;;;;;;;;;;;;;;;5137006;27;20355;-67
2023/03/26 13:54:50;;;;;;;;;;;;;;;;;;5136581;27;19907;-68
2023/03/26 13:57:17;;;;;;;;;;;;;;;;;;5137470;27;19939;-67
2023/03/26 13:59:43;;;;;;;;;;;;;;;;;;5136815;27;19953;-68
2023/03/26 14:02:09;;;;;;;;;;;;;;;;;;5136327;27;20363;-67
2023/03/26 14:04:35;;;;;;;;;;;;;;;;;;5136716;27;19908;-67
2023/03/26 14:07:01;;;;;;;;;;;;;;;;;;5118319;27;20325;-68
2023/03/26 14:09:27;;;;;;;;;;;;;;;;;;5136262;27;19946;-69
2023/03/26 14:11:55;;;;;;;;;;;;;;;;;;5118150;27;20375;-68
2023/03/26 14:14:21;;;;;;;;;;;;;;;;;;5136872;27;19921;-67
2023/03/26 14:16:47;;;;;;;;;;;;;;;;;;5117835;27;20399;-68
2023/03/26 14:19:13;;;;;;;;;;;;;;;;;;5136446;27;20367;-67
2023/03/26 14:21:39;;;;;;;;;;;;;;;;;;5136485;27;20382;-67
2023/03/26 14:24:05;;;;;;;;;;;;;;;;;;5135411;27;20413;-67
2023/03/26 14:26:31;;;;;;;;;;;;;;;;;;5136436;27;19911;-67
2023/03/26 14:28:57;;;;;;;;;;;;;;;;;;5136261;27;19907;-67
2023/03/26 14:31:23;;;;;;;;;;;;;;;;;;5135912;27;20382;-68
2023/03/26 14:33:49;;;;;;;;;;;;;;;;;;5117782;27;19911;-67
2023/03/26 14:36:15;;;;;;;;;;;;;;;;;;5136781;27;19914;-68
2023/03/26 14:38:41;;;;;;;;;;;;;;;;;;5135699;27;20409;-67
2023/03/26 14:41:07;;;;;;;;;;;;;;;;;;5135941;27;20303;-67
2023/03/26 14:43:33;;;;;;;;;;;;;;;;;;5117139;27;19907;-67
2023/03/26 14:45:59;;;;;;;;;;;;;;;;;;5136279;27;19959;-66
2023/03/26 14:48:25;;;;;;;;;;;;;;;;;;5135917;27;19907;-66
2023/03/26 14:50:53;;;;;;;;;;;;;;;;;;5135401;27;19907;-68
2023/03/26 14:53:19;;;;;;;;;;;;;;;;;;5117362;27;20125;-68
2023/03/26 14:55:47;;;;;;;;;;;;;;;;;;5136343;27;19914;-66
2023/03/26 14:58:13;;;;;;;;;;;;;;;;;;5135730;27;19946;-67
2023/03/26 15:00:39;;;;;;;;;;;;;;;;;;5135546;27;20414;-67
2023/03/26 15:03:06;;;;;;;;;;;;;;;;;;5117312;27;20280;-67
2023/03/26 15:05:32;;;;;;;;;;;;;;;;;;5135206;27;19908;-70
2023/03/26 15:07:58;;;;;;;;;;;;;;;;;;5135542;27;19914;-68
2023/03/26 15:10:24;;;;;;;;;;;;;;;;;;5135529;27;20283;-68
2023/03/26 15:12:50;;;;;;;;;;;;;;;;;;5116632;27;19914;-67
2023/03/26 15:15:16;;;;;;;;;;;;;;;;;;5135406;27;19907;-68
2023/03/26 15:17:42;;;;;;;;;;;;;;;;;;5135355;27;19908;-67
2023/03/26 15:20:08;;;;;;;;;;;;;;;;;;5134927;27;19960;-68
2023/03/26 15:22:34;;;;;;;;;;;;;;;;;;5135121;27;20372;-68
2023/03/26 15:25:00;;;;;;;;;;;;;;;;;;5117122;28;19933;-67
2023/03/26 15:27:26;;;;;;;;;;;;;;;;;;5134949;27;19911;-67
2023/03/26 15:29:52;;;;;;;;;;;;;;;;;;5135073;27;19957;-68
2023/03/26 15:32:21;;;;;;;;;;;;;;;;;;5135428;27;19908;-68
2023/03/26 15:34:47;;;;;;;;;;;;;;;;;;5116296;27;19982;-68
2023/03/26 15:37:14;;;;;;;;;;;;;;;;;;5116368;27;19914;-68
2023/03/26 15:39:45;;;;;;;;;;;;;;;;;;5135013;27;19956;-68
2023/03/26 15:42:11;;;;;;;;;;;;;;;;;;5134810;27;19916;-68
2023/03/26 15:44:37;;;;;;;;;;;;;;;;;;5134944;27;19915;-67
2023/03/26 15:47:03;;;;;;;;;;;;;;;;;;5134738;27;19950;-68
2023/03/26 15:49:29;;;;;;;;;;;;;;;;;;5134920;27;19919;-68
2023/03/26 15:51:55;;;;;;;;;;;;;;;;;;5116391;27;20407;-68
2023/03/26 15:54:21;;;;;;;;;;;;;;;;;;5116122;28;19945;-67
2023/03/26 15:56:51;;;;;;;;;;;;;;;;;;5116400;27;19908;-67
2023/03/26 15:59:18;;;;;;;;;;;;;;;;;;5134774;28;20018;-67
2023/03/26 16:01:47;;;;;;;;;;;;;;;;;;5134066;28;20006;-67
2023/03/26 16:04:13;;;;;;;;;;;;;;;;;;5134948;28;19986;-67
2023/03/26 16:07:15;;;;;;;;;;;;;;;;;;5153053;27;19919;-68
2023/03/26 16:09:41;;;;;;;;;;;;;;;;;;5152521;27;19912;-68
2023/03/26 16:12:07;;;;;;;;;;;;;;;;;;5153111;27;19911;-69
2023/03/26 16:14:33;;;;;;;;;;;;;;;;;;5152882;27;19911;-69
2023/03/26 16:16:59;;;;;;;;;;;;;;;;;;5152297;27;20224;-68
2023/03/26 16:19:25;;;;;;;;;;;;;;;;;;5152794;27;19907;-67
2023/03/26 16:22:23;;;;;;;;;;;;;;;;;;5091622;27;20287;-68
2023/03/26 16:24:49;;;;;;;;;;;;;;;;;;5091588;28;19912;-68
2023/03/26 16:27:15;;;;;;;;;;;;;;;;;;5090038;28;20004;-68
2023/03/26 16:29:41;;;;;;;;;;;;;;;;;;5090888;28;19909;-68
2023/03/26 16:33:07;;;;;;;;;;;;;;;;;;5112574;27;20356;-68
2023/03/26 16:35:33;;;;;;;;;;;;;;;;;;5111706;28;19999;-67
2023/03/26 16:37:59;;;;;;;;;;;;;;;;;;5109987;28;20432;-68
2023/03/26 16:40:25;;;;;;;;;;;;;;;;;;5111616;28;19954;-67
2023/03/26 16:47:10;;;;;;;;;;;;;;;;;;5071638;28;20288;-67
2023/03/26 16:49:36;;;;;;;;;;;;;;;;;;5071080;28;20008;-68
2023/03/26 16:52:02;;;;;;;;;;;;;;;;;;5070612;28;19968;-68
2023/03/26 16:54:28;;;;;;;;;;;;;;;;;;5070999;28;19931;-68
2023/03/26 16:56:54;;;;;;;;;;;;;;;;;;5070907;28;20322;-67
2023/03/26 17:01:25;;;;;;;;;;;;;;;;;;5112514;27;20284;-68
2023/03/26 17:03:52;;;;;;;;;;;;;;;;;;5111698;28;20302;-67
2023/03/26 17:06:19;;;;;;;;;;;;;;;;;;5111326;28;20368;-67
2023/03/26 17:08:59;;;;;;;;;;;;;;;;;;5112365;27;20257;-69
2023/03/26 17:11:25;;;;;;;;;;;;;;;;;;5111362;28;20002;-68
2023/03/26 17:13:51;;;;;;;;;;;;;;;;;;5111624;28;19914;-68
2023/03/26 17:16:16;;;;;;;;;;;;;;;;;;5111628;28;19908;-67
2023/03/26 17:18:42;;;;;;;;;;;;;;;;;;5111161;28;19961;-67
2023/03/26 17:21:08;;;;;;;;;;;;;;;;;;5111758;28;19994;-67
2023/03/26 17:24:54;;;;;;;;;;;;;;;;;;5112444;27;20287;-68
2023/03/26 17:27:20;;;;;;;;;;;;;;;;;;5111308;28;19912;-68
2023/03/26 17:29:46;;;;;;;;;;;;;;;;;;5111626;28;19930;-67
2023/03/26 17:34:35;;;;;;;;;;;;;;;;;;5111790;27;19916;-67
2023/03/26 17:37:01;;;;;;;;;;;;;;;;;;5111627;28;20030;-67
2023/03/26 17:41:38;;;;;;;;;;;;;;;;;;5091148;27;19916;-66
2023/03/26 17:46:12;;;;;;;;;;;;;;;;;;5112252;27;19939;-68
2023/03/26 17:48:48;;;;;;;;;;;;;;;;;;5153272;27;19915;-67
2023/03/26 17:53:21;;;;;;;;;;;;;;;;;;5111927;27;19922;-67
2023/03/26 17:57:41;;;;;;;;;;;;;;;;;;5092086;27;20288;-66
2023/03/26 18:00:19;;;;;;;;;;;;;;;;;;5092223;27;19913;-67